sensor_id;sensor_type;location;lat;lon;timestamp;temperature;humidity
49124;DHT22;48506;48.202;16.274;2023-09-18T00:01:52;21.20;95.80
49124;DHT22;48506;48.202;16.274;2023-09-18T00:04:18;21.30;95.80
49124;DHT22;48506;48.202;16.274;2023-09-18T00:06:44;21.30;95.80
49124;DHT22;48506;48.202;16.274;2023-09-18T00:09:10;21.30;95.90
49124;DHT22;48506;48.202;16.274;2023-09-18T00:11:39;21.30;96.00
49124;DHT22;48506;48.202;16.274;2023-09-18T00:14:07;21.20;96.00
49124;DHT22;48506;48.202;16.274;2023-09-18T00:16:33;21.10;96.00
49124;DHT22;48506;48.202;16.274;2023-09-18T00:18:59;21.00;96.30
49124;DHT22;48506;48.202;16.274;2023-09-18T00:21:25;21.00;96.20
49124;DHT22;48506;48.202;16.274;2023-09-18T00:23:52;20.90;96.10
49124;DHT22;48506;48.202;16.274;2023-09-18T00:26:17;20.90;96.20
49124;DHT22;48506;48.202;16.274;2023-09-18T00:28:43;20.80;96.20
49124;DHT22;48506;48.202;16.274;2023-09-18T00:31:09;20.80;96.20
49124;DHT22;48506;48.202;16.274;2023-09-18T00:33:35;20.80;96.30
49124;DHT22;48506;48.202;16.274;2023-09-18T00:36:01;20.90;96.40
49124;DHT22;48506;48.202;16.274;2023-09-18T00:38:27;20.90;96.30
49124;DHT22;48506;48.202;16.274;2023-09-18T00:40:53;20.90;96.30
49124;DHT22;48506;48.202;16.274;2023-09-18T00:43:19;21.00;96.30
49124;DHT22;48506;48.202;16.274;2023-09-18T00:45:48;21.00;96.20
49124;DHT22;48506;48.202;16.274;2023-09-18T00:48:17;21.00;96.30
49124;DHT22;48506;48.202;16.274;2023-09-18T00:50:46;21.00;96.20
49124;DHT22;48506;48.202;16.274;2023-09-18T00:53:17;21.00;96.10
49124;DHT22;48506;48.202;16.274;2023-09-18T00:55:45;21.00;96.20
49124;DHT22;48506;48.202;16.274;2023-09-18T00:58:11;21.00;96.20
49124;DHT22;48506;48.202;16.274;2023-09-18T01:00:37;21.10;96.20
49124;DHT22;48506;48.202;16.274;2023-09-18T01:03:04;21.00;96.20
49124;DHT22;48506;48.202;16.274;2023-09-18T01:05:34;21.00;96.20
49124;DHT22;48506;48.202;16.274;2023-09-18T01:08:01;21.00;96.40
49124;DHT22;48506;48.202;16.274;2023-09-18T01:10:36;21.10;96.40
49124;DHT22;48506;48.202;16.274;2023-09-18T01:13:11;21.00;96.40
49124;DHT22;48506;48.202;16.274;2023-09-18T01:15:52;21.00;96.30
49124;DHT22;48506;48.202;16.274;2023-09-18T01:18:20;21.00;96.40
49124;DHT22;48506;48.202;16.274;2023-09-18T01:20:46;21.00;96.40
49124;DHT22;48506;48.202;16.274;2023-09-18T01:23:12;21.00;96.50
49124;DHT22;48506;48.202;16.274;2023-09-18T01:25:37;20.90;96.50
49124;DHT22;48506;48.202;16.274;2023-09-18T01:28:04;20.90;96.50
49124;DHT22;48506;48.202;16.274;2023-09-18T01:30:30;20.90;96.50
49124;DHT22;48506;48.202;16.274;2023-09-18T01:32:59;20.90;96.50
49124;DHT22;48506;48.202;16.274;2023-09-18T01:35:26;20.90;96.50
49124;DHT22;48506;48.202;16.274;2023-09-18T01:37:59;20.90;96.60
49124;DHT22;48506;48.202;16.274;2023-09-18T01:40:26;20.90;96.60
49124;DHT22;48506;48.202;16.274;2023-09-18T01:42:53;20.90;96.60
49124;DHT22;48506;48.202;16.274;2023-09-18T01:45:19;20.80;96.70
49124;DHT22;48506;48.202;16.274;2023-09-18T01:47:45;20.80;96.70
49124;DHT22;48506;48.202;16.274;2023-09-18T01:50:12;20.80;96.70
49124;DHT22;48506;48.202;16.274;2023-09-18T01:52:38;20.80;96.80
49124;DHT22;48506;48.202;16.274;2023-09-18T01:55:04;20.70;96.90
49124;DHT22;48506;48.202;16.274;2023-09-18T01:57:31;20.80;96.90
49124;DHT22;48506;48.202;16.274;2023-09-18T01:59:57;20.70;97.00
49124;DHT22;48506;48.202;16.274;2023-09-18T02:02:23;20.70;97.10
49124;DHT22;48506;48.202;16.274;2023-09-18T02:04:50;20.70;97.10
49124;DHT22;48506;48.202;16.274;2023-09-18T02:07:16;20.70;97.10
49124;DHT22;48506;48.202;16.274;2023-09-18T02:09:42;20.70;97.20
49124;DHT22;48506;48.202;16.274;2023-09-18T02:12:08;20.70;97.10
49124;DHT22;48506;48.202;16.274;2023-09-18T02:14:33;20.70;97.30
49124;DHT22;48506;48.202;16.274;2023-09-18T02:16:59;20.70;97.10
49124;DHT22;48506;48.202;16.274;2023-09-18T02:19:25;20.70;97.10
49124;DHT22;48506;48.202;16.274;2023-09-18T02:21:52;20.60;97.10
49124;DHT22;48506;48.202;16.274;2023-09-18T02:24:18;20.60;97.20
49124;DHT22;48506;48.202;16.274;2023-09-18T02:26:44;20.60;97.20
49124;DHT22;48506;48.202;16.274;2023-09-18T02:29:13;20.60;97.30
49124;DHT22;48506;48.202;16.274;2023-09-18T02:31:40;20.60;97.30
49124;DHT22;48506;48.202;16.274;2023-09-18T02:34:06;20.60;97.40
49124;DHT22;48506;48.202;16.274;2023-09-18T02:36:33;20.50;97.40
49124;DHT22;48506;48.202;16.274;2023-09-18T02:38:59;20.50;97.50
49124;DHT22;48506;48.202;16.274;2023-09-18T02:41:25;20.50;97.50
49124;DHT22;48506;48.202;16.274;2023-09-18T02:43:51;20.50;97.50
49124;DHT22;48506;48.202;16.274;2023-09-18T02:46:17;20.50;97.60
49124;DHT22;48506;48.202;16.274;2023-09-18T02:48:42;20.40;97.60
49124;DHT22;48506;48.202;16.274;2023-09-18T02:51:08;20.40;97.70
49124;DHT22;48506;48.202;16.274;2023-09-18T02:53:34;20.40;97.90
49124;DHT22;48506;48.202;16.274;2023-09-18T02:56:00;20.40;97.90
49124;DHT22;48506;48.202;16.274;2023-09-18T02:58:27;20.40;97.90
49124;DHT22;48506;48.202;16.274;2023-09-18T03:00:56;20.40;97.90
49124;DHT22;48506;48.202;16.274;2023-09-18T03:03:26;20.40;97.80
49124;DHT22;48506;48.202;16.274;2023-09-18T03:05:51;20.40;97.80
49124;DHT22;48506;48.202;16.274;2023-09-18T03:08:17;20.40;97.80
49124;DHT22;48506;48.202;16.274;2023-09-18T03:10:44;20.30;97.90
49124;DHT22;48506;48.202;16.274;2023-09-18T03:13:11;20.30;97.90
49124;DHT22;48506;48.202;16.274;2023-09-18T03:15:37;20.30;97.90
49124;DHT22;48506;48.202;16.274;2023-09-18T03:18:05;20.30;97.90
49124;DHT22;48506;48.202;16.274;2023-09-18T03:20:33;20.30;97.90
49124;DHT22;48506;48.202;16.274;2023-09-18T03:23:00;20.30;97.90
49124;DHT22;48506;48.202;16.274;2023-09-18T03:25:27;20.20;97.90
49124;DHT22;48506;48.202;16.274;2023-09-18T03:27:56;20.20;97.90
49124;DHT22;48506;48.202;16.274;2023-09-18T03:30:24;20.20;98.00
49124;DHT22;48506;48.202;16.274;2023-09-18T03:32:51;20.10;98.00
49124;DHT22;48506;48.202;16.274;2023-09-18T03:35:18;20.10;98.10
49124;DHT22;48506;48.202;16.274;2023-09-18T03:37:49;20.10;98.20
49124;DHT22;48506;48.202;16.274;2023-09-18T03:40:16;20.00;98.20
49124;DHT22;48506;48.202;16.274;2023-09-18T03:42:43;20.00;98.30
49124;DHT22;48506;48.202;16.274;2023-09-18T03:45:10;20.00;98.40
49124;DHT22;48506;48.202;16.274;2023-09-18T03:47:38;20.00;98.50
49124;DHT22;48506;48.202;16.274;2023-09-18T03:50:08;20.00;98.50
49124;DHT22;48506;48.202;16.274;2023-09-18T03:52:35;20.00;98.60
49124;DHT22;48506;48.202;16.274;2023-09-18T03:55:01;20.00;98.70
49124;DHT22;48506;48.202;16.274;2023-09-18T03:57:27;19.90;98.70
49124;DHT22;48506;48.202;16.274;2023-09-18T03:59:53;19.90;98.80
49124;DHT22;48506;48.202;16.274;2023-09-18T04:02:21;20.00;98.80
49124;DHT22;48506;48.202;16.274;2023-09-18T04:04:47;20.00;98.80
49124;DHT22;48506;48.202;16.274;2023-09-18T04:07:16;19.90;98.80
49124;DHT22;48506;48.202;16.274;2023-09-18T04:09:42;19.90;98.80
49124;DHT22;48506;48.202;16.274;2023-09-18T04:12:08;19.90;98.90
49124;DHT22;48506;48.202;16.274;2023-09-18T04:14:35;19.90;98.90
49124;DHT22;48506;48.202;16.274;2023-09-18T04:17:02;19.90;98.90
49124;DHT22;48506;48.202;16.274;2023-09-18T04:19:28;19.90;99.00
49124;DHT22;48506;48.202;16.274;2023-09-18T04:21:54;19.90;99.00
49124;DHT22;48506;48.202;16.274;2023-09-18T04:24:21;19.90;98.90
49124;DHT22;48506;48.202;16.274;2023-09-18T04:26:48;19.90;98.90
49124;DHT22;48506;48.202;16.274;2023-09-18T04:29:18;19.90;98.90
49124;DHT22;48506;48.202;16.274;2023-09-18T04:31:44;19.90;99.00
49124;DHT22;48506;48.202;16.274;2023-09-18T04:34:11;19.90;99.10
49124;DHT22;48506;48.202;16.274;2023-09-18T04:36:37;19.80;99.20
49124;DHT22;48506;48.202;16.274;2023-09-18T04:39:05;19.80;99.30
49124;DHT22;48506;48.202;16.274;2023-09-18T04:41:31;19.80;99.30
49124;DHT22;48506;48.202;16.274;2023-09-18T04:43:58;19.90;99.30
49124;DHT22;48506;48.202;16.274;2023-09-18T04:46:24;19.90;99.40
49124;DHT22;48506;48.202;16.274;2023-09-18T04:48:51;19.90;99.30
49124;DHT22;48506;48.202;16.274;2023-09-18T04:51:17;19.90;99.40
49124;DHT22;48506;48.202;16.274;2023-09-18T04:53:43;19.90;99.40
49124;DHT22;48506;48.202;16.274;2023-09-18T04:56:09;19.90;99.40
49124;DHT22;48506;48.202;16.274;2023-09-18T04:58:38;19.90;99.50
49124;DHT22;48506;48.202;16.274;2023-09-18T05:01:05;19.90;99.50
49124;DHT22;48506;48.202;16.274;2023-09-18T05:03:34;19.90;99.50
49124;DHT22;48506;48.202;16.274;2023-09-18T05:06:01;20.00;99.40
49124;DHT22;48506;48.202;16.274;2023-09-18T05:08:28;20.00;99.50
49124;DHT22;48506;48.202;16.274;2023-09-18T05:10:54;20.00;99.40
49124;DHT22;48506;48.202;16.274;2023-09-18T05:13:21;20.00;99.30
49124;DHT22;48506;48.202;16.274;2023-09-18T05:15:47;20.00;99.40
49124;DHT22;48506;48.202;16.274;2023-09-18T05:18:13;20.00;99.40
49124;DHT22;48506;48.202;16.274;2023-09-18T05:20:40;20.00;99.40
49124;DHT22;48506;48.202;16.274;2023-09-18T05:23:06;20.00;99.50
49124;DHT22;48506;48.202;16.274;2023-09-18T05:25:33;20.00;99.60
49124;DHT22;48506;48.202;16.274;2023-09-18T05:28:02;20.00;99.70
49124;DHT22;48506;48.202;16.274;2023-09-18T05:30:33;20.10;99.70
49124;DHT22;48506;48.202;16.274;2023-09-18T05:33:02;20.10;99.50
49124;DHT22;48506;48.202;16.274;2023-09-18T05:35:32;20.10;99.50
49124;DHT22;48506;48.202;16.274;2023-09-18T05:37:58;20.10;99.50
49124;DHT22;48506;48.202;16.274;2023-09-18T05:40:25;20.10;99.60
49124;DHT22;48506;48.202;16.274;2023-09-18T05:42:53;20.10;99.50
49124;DHT22;48506;48.202;16.274;2023-09-18T05:45:20;20.20;99.60
49124;DHT22;48506;48.202;16.274;2023-09-18T05:47:46;20.20;99.60
49124;DHT22;48506;48.202;16.274;2023-09-18T05:50:13;20.20;99.60
49124;DHT22;48506;48.202;16.274;2023-09-18T05:52:44;20.20;99.60
49124;DHT22;48506;48.202;16.274;2023-09-18T05:55:11;20.20;99.60
49124;DHT22;48506;48.202;16.274;2023-09-18T05:57:37;20.20;99.60
49124;DHT22;48506;48.202;16.274;2023-09-18T06:00:03;20.30;99.70
49124;DHT22;48506;48.202;16.274;2023-09-18T06:02:30;20.30;99.70
49124;DHT22;48506;48.202;16.274;2023-09-18T06:05:00;20.40;99.80
49124;DHT22;48506;48.202;16.274;2023-09-18T06:07:27;20.40;99.70
49124;DHT22;48506;48.202;16.274;2023-09-18T06:09:53;20.50;99.60
49124;DHT22;48506;48.202;16.274;2023-09-18T06:12:20;20.50;99.60
49124;DHT22;48506;48.202;16.274;2023-09-18T06:14:51;20.50;99.60
49124;DHT22;48506;48.202;16.274;2023-09-18T06:17:17;20.60;99.70
49124;DHT22;48506;48.202;16.274;2023-09-18T06:19:44;20.60;99.50
49124;DHT22;48506;48.202;16.274;2023-09-18T06:22:12;20.70;99.50
49124;DHT22;48506;48.202;16.274;2023-09-18T06:24:38;20.70;99.50
49124;DHT22;48506;48.202;16.274;2023-09-18T06:27:05;20.70;99.40
49124;DHT22;48506;48.202;16.274;2023-09-18T06:29:34;20.80;99.30
49124;DHT22;48506;48.202;16.274;2023-09-18T06:32:00;20.80;99.20
49124;DHT22;48506;48.202;16.274;2023-09-18T06:34:27;20.80;99.20
49124;DHT22;48506;48.202;16.274;2023-09-18T06:36:54;20.80;99.30
49124;DHT22;48506;48.202;16.274;2023-09-18T06:39:21;20.90;99.20
49124;DHT22;48506;48.202;16.274;2023-09-18T06:41:49;21.00;99.40
49124;DHT22;48506;48.202;16.274;2023-09-18T06:44:16;21.10;99.20
49124;DHT22;48506;48.202;16.274;2023-09-18T06:46:41;21.10;99.00
49124;DHT22;48506;48.202;16.274;2023-09-18T06:49:08;21.20;99.00
49124;DHT22;48506;48.202;16.274;2023-09-18T06:51:34;21.20;98.90
49124;DHT22;48506;48.202;16.274;2023-09-18T06:54:00;21.30;99.00
49124;DHT22;48506;48.202;16.274;2023-09-18T06:56:28;21.30;99.10
49124;DHT22;48506;48.202;16.274;2023-09-18T06:58:55;21.50;99.10
49124;DHT22;48506;48.202;16.274;2023-09-18T07:01:21;21.60;98.80
49124;DHT22;48506;48.202;16.274;2023-09-18T07:03:48;21.70;98.70
49124;DHT22;48506;48.202;16.274;2023-09-18T07:06:14;21.80;98.80
49124;DHT22;48506;48.202;16.274;2023-09-18T07:08:47;21.90;98.60
49124;DHT22;48506;48.202;16.274;2023-09-18T07:11:17;22.10;98.40
49124;DHT22;48506;48.202;16.274;2023-09-18T07:13:44;22.20;98.30
49124;DHT22;48506;48.202;16.274;2023-09-18T07:16:10;22.40;98.00
49124;DHT22;48506;48.202;16.274;2023-09-18T07:18:36;22.50;97.90
49124;DHT22;48506;48.202;16.274;2023-09-18T07:21:02;22.60;97.80
49124;DHT22;48506;48.202;16.274;2023-09-18T07:23:28;22.70;97.50
49124;DHT22;48506;48.202;16.274;2023-09-18T07:25:54;22.90;97.10
49124;DHT22;48506;48.202;16.274;2023-09-18T07:28:20;23.00;96.80
49124;DHT22;48506;48.202;16.274;2023-09-18T07:30:47;23.20;96.80
49124;DHT22;48506;48.202;16.274;2023-09-18T07:33:14;23.40;96.70
49124;DHT22;48506;48.202;16.274;2023-09-18T07:35:47;23.60;96.50
49124;DHT22;48506;48.202;16.274;2023-09-18T07:38:14;23.80;96.00
49124;DHT22;48506;48.202;16.274;2023-09-18T07:40:40;23.90;95.70
49124;DHT22;48506;48.202;16.274;2023-09-18T07:43:06;24.00;95.60
49124;DHT22;48506;48.202;16.274;2023-09-18T07:45:33;24.10;95.20
49124;DHT22;48506;48.202;16.274;2023-09-18T07:47:59;24.20;95.10
49124;DHT22;48506;48.202;16.274;2023-09-18T07:50:25;24.30;94.70
49124;DHT22;48506;48.202;16.274;2023-09-18T07:52:51;24.50;94.90
49124;DHT22;48506;48.202;16.274;2023-09-18T07:55:17;24.60;94.60
49124;DHT22;48506;48.202;16.274;2023-09-18T07:57:43;24.70;94.40
49124;DHT22;48506;48.202;16.274;2023-09-18T08:00:11;25.00;94.50
49124;DHT22;48506;48.202;16.274;2023-09-18T08:02:39;25.10;94.00
49124;DHT22;48506;48.202;16.274;2023-09-18T08:05:05;25.30;93.80
49124;DHT22;48506;48.202;16.274;2023-09-18T08:07:32;25.40;93.70
49124;DHT22;48506;48.202;16.274;2023-09-18T08:09:58;25.50;93.50
49124;DHT22;48506;48.202;16.274;2023-09-18T08:12:24;25.50;93.20
49124;DHT22;48506;48.202;16.274;2023-09-18T08:14:51;25.50;93.00
49124;DHT22;48506;48.202;16.274;2023-09-18T08:17:17;25.60;92.90
49124;DHT22;48506;48.202;16.274;2023-09-18T08:19:43;25.50;92.90
49124;DHT22;48506;48.202;16.274;2023-09-18T08:22:10;25.50;92.70
49124;DHT22;48506;48.202;16.274;2023-09-18T08:24:40;25.50;92.80
49124;DHT22;48506;48.202;16.274;2023-09-18T08:27:07;25.60;93.00
49124;DHT22;48506;48.202;16.274;2023-09-18T08:29:35;25.80;92.80
49124;DHT22;48506;48.202;16.274;2023-09-18T08:32:01;25.80;92.60
49124;DHT22;48506;48.202;16.274;2023-09-18T08:34:27;25.80;92.60
49124;DHT22;48506;48.202;16.274;2023-09-18T08:36:52;25.90;92.70
49124;DHT22;48506;48.202;16.274;2023-09-18T08:39:18;25.90;92.40
49124;DHT22;48506;48.202;16.274;2023-09-18T08:41:45;26.10;92.50
49124;DHT22;48506;48.202;16.274;2023-09-18T08:44:17;26.20;92.20
49124;DHT22;48506;48.202;16.274;2023-09-18T08:46:44;26.30;92.20
49124;DHT22;48506;48.202;16.274;2023-09-18T08:49:11;26.50;91.90
49124;DHT22;48506;48.202;16.274;2023-09-18T08:51:38;26.70;91.30
49124;DHT22;48506;48.202;16.274;2023-09-18T08:54:05;26.80;91.10
49124;DHT22;48506;48.202;16.274;2023-09-18T08:56:33;27.00;90.10
49124;DHT22;48506;48.202;16.274;2023-09-18T08:59:00;27.00;90.30
49124;DHT22;48506;48.202;16.274;2023-09-18T09:01:26;27.10;88.80
49124;DHT22;48506;48.202;16.274;2023-09-18T09:03:52;27.10;89.20
49124;DHT22;48506;48.202;16.274;2023-09-18T09:06:18;27.30;88.90
49124;DHT22;48506;48.202;16.274;2023-09-18T09:08:44;27.40;88.30
49124;DHT22;48506;48.202;16.274;2023-09-18T09:11:10;27.30;86.80
49124;DHT22;48506;48.202;16.274;2023-09-18T09:13:36;27.20;87.30
49124;DHT22;48506;48.202;16.274;2023-09-18T09:16:03;27.10;87.70
49124;DHT22;48506;48.202;16.274;2023-09-18T09:18:30;27.20;87.60
49124;DHT22;48506;48.202;16.274;2023-09-18T09:21:01;27.30;87.10
49124;DHT22;48506;48.202;16.274;2023-09-18T09:23:47;27.50;86.50
49124;DHT22;48506;48.202;16.274;2023-09-18T09:26:16;27.60;87.30
49124;DHT22;48506;48.202;16.274;2023-09-18T09:28:43;27.70;85.40
49124;DHT22;48506;48.202;16.274;2023-09-18T09:31:11;27.70;86.10
49124;DHT22;48506;48.202;16.274;2023-09-18T09:33:37;27.90;85.30
49124;DHT22;48506;48.202;16.274;2023-09-18T09:36:07;28.00;85.00
49124;DHT22;48506;48.202;16.274;2023-09-18T09:38:34;28.10;84.80
49124;DHT22;48506;48.202;16.274;2023-09-18T09:41:01;28.20;84.20
49124;DHT22;48506;48.202;16.274;2023-09-18T09:43:30;28.20;83.60
49124;DHT22;48506;48.202;16.274;2023-09-18T09:45:58;28.20;83.00
49124;DHT22;48506;48.202;16.274;2023-09-18T09:48:24;28.30;83.90
49124;DHT22;48506;48.202;16.274;2023-09-18T09:50:51;28.20;82.90
49124;DHT22;48506;48.202;16.274;2023-09-18T09:53:18;28.00;83.60
49124;DHT22;48506;48.202;16.274;2023-09-18T09:55:45;27.80;83.80
49124;DHT22;48506;48.202;16.274;2023-09-18T09:58:11;27.80;83.60
49124;DHT22;48506;48.202;16.274;2023-09-18T10:00:46;27.70;84.40
49124;DHT22;48506;48.202;16.274;2023-09-18T10:03:19;27.60;84.60
49124;DHT22;48506;48.202;16.274;2023-09-18T10:05:51;27.70;84.90
49124;DHT22;48506;48.202;16.274;2023-09-18T10:08:25;27.90;83.50
49124;DHT22;48506;48.202;16.274;2023-09-18T10:10:54;28.20;83.40
49124;DHT22;48506;48.202;16.274;2023-09-18T10:14:07;28.50;82.50
49124;DHT22;48506;48.202;16.274;2023-09-18T10:16:18;28.80;82.00
49124;DHT22;48506;48.202;16.274;2023-09-18T10:19:09;28.90;81.10
49124;DHT22;48506;48.202;16.274;2023-09-18T10:22:24;28.90;80.30
49124;DHT22;48506;48.202;16.274;2023-09-18T10:24:37;29.00;79.90
49124;DHT22;48506;48.202;16.274;2023-09-18T10:27:04;28.90;79.60
49124;DHT22;48506;48.202;16.274;2023-09-18T10:29:35;28.80;79.40
49124;DHT22;48506;48.202;16.274;2023-09-18T10:32:06;28.70;78.40
49124;DHT22;48506;48.202;16.274;2023-09-18T10:34:36;28.50;78.60
49124;DHT22;48506;48.202;16.274;2023-09-18T10:37:03;28.30;78.90
49124;DHT22;48506;48.202;16.274;2023-09-18T10:39:37;28.20;79.10
49124;DHT22;48506;48.202;16.274;2023-09-18T10:42:08;28.30;79.60
49124;DHT22;48506;48.202;16.274;2023-09-18T10:44:35;28.40;80.60
49124;DHT22;48506;48.202;16.274;2023-09-18T10:47:03;28.70;79.40
49124;DHT22;48506;48.202;16.274;2023-09-18T10:49:31;29.00;79.00
49124;DHT22;48506;48.202;16.274;2023-09-18T10:51:58;29.30;78.60
49124;DHT22;48506;48.202;16.274;2023-09-18T10:54:30;29.50;77.80
49124;DHT22;48506;48.202;16.274;2023-09-18T10:56:57;29.70;77.90
49124;DHT22;48506;48.202;16.274;2023-09-18T10:59:24;29.90;78.00
49124;DHT22;48506;48.202;16.274;2023-09-18T11:01:50;30.10;77.90
49124;DHT22;48506;48.202;16.274;2023-09-18T11:04:20;30.20;79.30
49124;DHT22;48506;48.202;16.274;2023-09-18T11:09:26;30.20;77.90
49124;DHT22;48506;48.202;16.274;2023-09-18T11:15:05;30.00;78.20
49124;DHT22;48506;48.202;16.274;2023-09-18T11:17:39;30.10;77.70
49124;DHT22;48506;48.202;16.274;2023-09-18T11:22:38;30.30;77.80
49124;DHT22;48506;48.202;16.274;2023-09-18T11:27:57;30.20;76.70
49124;DHT22;48506;48.202;16.274;2023-09-18T11:30:23;30.00;76.70
49124;DHT22;48506;48.202;16.274;2023-09-18T11:32:50;30.00;77.40
49124;DHT22;48506;48.202;16.274;2023-09-18T11:35:18;30.10;77.50
49124;DHT22;48506;48.202;16.274;2023-09-18T11:37:45;30.10;77.00
49124;DHT22;48506;48.202;16.274;2023-09-18T11:40:34;30.20;77.70
49124;DHT22;48506;48.202;16.274;2023-09-18T11:45:58;30.10;76.80
49124;DHT22;48506;48.202;16.274;2023-09-18T11:48:26;30.00;76.90
49124;DHT22;48506;48.202;16.274;2023-09-18T11:50:59;29.90;77.40
49124;DHT22;48506;48.202;16.274;2023-09-18T11:53:27;29.90;77.10
49124;DHT22;48506;48.202;16.274;2023-09-18T11:55:54;30.00;77.50
49124;DHT22;48506;48.202;16.274;2023-09-18T11:58:21;30.00;77.80
49124;DHT22;48506;48.202;16.274;2023-09-18T12:00:50;30.20;78.10
49124;DHT22;48506;48.202;16.274;2023-09-18T12:03:21;30.30;77.40
49124;DHT22;48506;48.202;16.274;2023-09-18T12:06:00;30.30;77.20
49124;DHT22;48506;48.202;16.274;2023-09-18T12:08:28;30.40;76.00
49124;DHT22;48506;48.202;16.274;2023-09-18T12:10:56;30.40;76.40
49124;DHT22;48506;48.202;16.274;2023-09-18T12:13:26;30.40;76.70
49124;DHT22;48506;48.202;16.274;2023-09-18T12:15:59;30.50;76.70
49124;DHT22;48506;48.202;16.274;2023-09-18T12:18:27;30.70;75.90
49124;DHT22;48506;48.202;16.274;2023-09-18T12:20:57;30.70;75.50
49124;DHT22;48506;48.202;16.274;2023-09-18T12:23:25;30.60;75.10
49124;DHT22;48506;48.202;16.274;2023-09-18T12:26:00;30.70;76.30
49124;DHT22;48506;48.202;16.274;2023-09-18T12:28:27;30.80;76.50
49124;DHT22;48506;48.202;16.274;2023-09-18T12:30:55;30.80;75.90
49124;DHT22;48506;48.202;16.274;2023-09-18T12:33:25;30.70;75.40
49124;DHT22;48506;48.202;16.274;2023-09-18T12:35:52;30.60;75.80
49124;DHT22;48506;48.202;16.274;2023-09-18T12:38:19;30.70;75.00
49124;DHT22;48506;48.202;16.274;2023-09-18T12:40:48;30.60;75.10
49124;DHT22;48506;48.202;16.274;2023-09-18T12:43:15;30.60;75.00
49124;DHT22;48506;48.202;16.274;2023-09-18T12:45:42;30.50;74.60
49124;DHT22;48506;48.202;16.274;2023-09-18T12:48:09;30.50;75.70
49124;DHT22;48506;48.202;16.274;2023-09-18T12:50:36;30.50;74.90
49124;DHT22;48506;48.202;16.274;2023-09-18T12:55:34;30.60;74.60
49124;DHT22;48506;48.202;16.274;2023-09-18T12:58:01;30.60;75.00
49124;DHT22;48506;48.202;16.274;2023-09-18T13:00:31;30.60;75.10
49124;DHT22;48506;48.202;16.274;2023-09-18T13:02:58;30.60;75.50
49124;DHT22;48506;48.202;16.274;2023-09-18T13:05:24;30.60;74.90
49124;DHT22;48506;48.202;16.274;2023-09-18T13:08:02;30.50;75.10
49124;DHT22;48506;48.202;16.274;2023-09-18T13:10:43;30.50;75.80
49124;DHT22;48506;48.202;16.274;2023-09-18T13:13:16;30.40;75.40
49124;DHT22;48506;48.202;16.274;2023-09-18T13:15:43;30.30;76.40
49124;DHT22;48506;48.202;16.274;2023-09-18T13:18:12;30.30;76.00
49124;DHT22;48506;48.202;16.274;2023-09-18T13:20:38;30.30;76.10
49124;DHT22;48506;48.202;16.274;2023-09-18T13:23:06;30.20;76.20
49124;DHT22;48506;48.202;16.274;2023-09-18T13:28:00;30.10;76.40
49124;DHT22;48506;48.202;16.274;2023-09-18T13:30:27;30.10;76.70
49124;DHT22;48506;48.202;16.274;2023-09-18T13:33:04;30.00;76.20
49124;DHT22;48506;48.202;16.274;2023-09-18T13:35:32;30.00;76.60
49124;DHT22;48506;48.202;16.274;2023-09-18T13:37:58;29.90;76.80
49124;DHT22;48506;48.202;16.274;2023-09-18T13:40:24;29.80;76.70
49124;DHT22;48506;48.202;16.274;2023-09-18T13:42:50;29.70;77.30
49124;DHT22;48506;48.202;16.274;2023-09-18T13:45:17;29.70;76.90
49124;DHT22;48506;48.202;16.274;2023-09-18T13:47:43;29.70;77.60
49124;DHT22;48506;48.202;16.274;2023-09-18T13:50:10;29.60;76.80
49124;DHT22;48506;48.202;16.274;2023-09-18T13:52:36;29.60;77.50
49124;DHT22;48506;48.202;16.274;2023-09-18T13:55:03;29.50;76.70
49124;DHT22;48506;48.202;16.274;2023-09-18T13:57:32;29.40;77.50
49124;DHT22;48506;48.202;16.274;2023-09-18T14:00:00;29.40;77.00
49124;DHT22;48506;48.202;16.274;2023-09-18T14:02:27;29.30;77.10
49124;DHT22;48506;48.202;16.274;2023-09-18T14:04:54;29.20;77.00
49124;DHT22;48506;48.202;16.274;2023-09-18T14:07:20;29.20;78.20
49124;DHT22;48506;48.202;16.274;2023-09-18T14:09:46;29.10;78.00
49124;DHT22;48506;48.202;16.274;2023-09-18T14:12:12;29.10;78.10
49124;DHT22;48506;48.202;16.274;2023-09-18T14:14:38;29.00;78.40
49124;DHT22;48506;48.202;16.274;2023-09-18T14:17:06;29.00;78.30
49124;DHT22;48506;48.202;16.274;2023-09-18T14:19:32;28.90;78.30
49124;DHT22;48506;48.202;16.274;2023-09-18T14:21:58;29.00;78.60
49124;DHT22;48506;48.202;16.274;2023-09-18T14:24:30;28.90;78.50
49124;DHT22;48506;48.202;16.274;2023-09-18T14:26:57;28.80;78.50
49124;DHT22;48506;48.202;16.274;2023-09-18T14:29:23;28.80;78.10
49124;DHT22;48506;48.202;16.274;2023-09-18T14:31:49;28.90;78.30
49124;DHT22;48506;48.202;16.274;2023-09-18T14:34:15;28.90;78.70
49124;DHT22;48506;48.202;16.274;2023-09-18T14:36:41;28.90;77.80
49124;DHT22;48506;48.202;16.274;2023-09-18T14:39:09;28.80;78.40
49124;DHT22;48506;48.202;16.274;2023-09-18T14:41:38;28.80;78.80
49124;DHT22;48506;48.202;16.274;2023-09-18T14:44:05;28.80;78.80
49124;DHT22;48506;48.202;16.274;2023-09-18T14:46:32;28.60;78.80
49124;DHT22;48506;48.202;16.274;2023-09-18T14:49:01;28.40;79.50
49124;DHT22;48506;48.202;16.274;2023-09-18T14:51:27;28.20;79.40
49124;DHT22;48506;48.202;16.274;2023-09-18T14:53:58;28.20;79.20
49124;DHT22;48506;48.202;16.274;2023-09-18T14:56:24;28.20;79.30
49124;DHT22;48506;48.202;16.274;2023-09-18T14:58:51;28.30;79.40
49124;DHT22;48506;48.202;16.274;2023-09-18T15:01:23;28.40;79.50
49124;DHT22;48506;48.202;16.274;2023-09-18T15:03:52;28.50;79.00
49124;DHT22;48506;48.202;16.274;2023-09-18T15:06:18;28.50;79.10
49124;DHT22;48506;48.202;16.274;2023-09-18T15:08:44;28.60;78.90
49124;DHT22;48506;48.202;16.274;2023-09-18T15:11:11;28.60;79.00
49124;DHT22;48506;48.202;16.274;2023-09-18T15:13:38;28.60;78.80
49124;DHT22;48506;48.202;16.274;2023-09-18T15:16:05;28.70;79.80
49124;DHT22;48506;48.202;16.274;2023-09-18T15:18:32;28.80;79.30
49124;DHT22;48506;48.202;16.274;2023-09-18T15:20:58;28.80;78.80
49124;DHT22;48506;48.202;16.274;2023-09-18T15:23:24;28.70;78.40
49124;DHT22;48506;48.202;16.274;2023-09-18T15:25:51;28.60;78.50
49124;DHT22;48506;48.202;16.274;2023-09-18T15:28:20;28.40;78.80
49124;DHT22;48506;48.202;16.274;2023-09-18T15:30:49;28.20;79.20
49124;DHT22;48506;48.202;16.274;2023-09-18T15:33:15;28.20;79.60
49124;DHT22;48506;48.202;16.274;2023-09-18T15:35:43;28.10;79.50
49124;DHT22;48506;48.202;16.274;2023-09-18T15:38:10;28.10;79.90